Time;durP1;ratioP1;P1;durP2;ratioP2;P2;SDS_P1;SDS_P2;PMS_P1;PMS_P2;Temp;Humidity;BMP_temperature;BMP_pressure;BME280_temperature;BME280_humidity;BME280_pressure;Samples;Min_cycle;Max_cycle;Signal;HPM_P1;HPM_P2
2023/06/19 00:00:40;;;;;;;4.55;4.15;;;21.50;99.90;;;;;;4998315;28;20319;-63
2023/06/19 00:03:08;;;;;;;4.57;4.18;;;21.50;99.90;;;;;;4993416;28;20596;-64
2023/06/19 00:05:35;;;;;;;5.78;4.35;;;21.50;99.90;;;;;;5008757;28;20214;-63
2023/06/19 00:08:03;;;;;;;5.88;3.88;;;21.50;99.90;;;;;;4968615;28;20223;-63
2023/06/19 00:10:30;;;;;;;6.45;4.15;;;21.50;99.90;;;;;;5010336;28;20221;-63
2023/06/19 00:12:56;;;;;;;4.78;4.38;;;21.40;99.90;;;;;;5010239;28;20230;-63
2023/06/19 00:15:24;;;;;;;5.20;4.50;;;;;;;;;;4994482;28;20202;-63
2023/06/19 00:17:50;;;;;;;4.57;4.18;;;21.30;99.90;;;;;;5000186;28;20206;-63
2023/06/19 00:20:18;;;;;;;5.18;4.35;;;21.40;99.90;;;;;;5013209;28;20209;-63
2023/06/19 00:22:50;;;;;;;5.30;3.88;;;21.30;99.90;;;;;;4965903;28;20739;-63
2023/06/19 00:25:16;;;;;;;7.03;5.00;;;21.40;99.90;;;;;;5010447;28;21598;-64
2023/06/19 00:27:43;;;;;;;5.57;4.30;;;21.30;99.90;;;;;;4993995;28;20206;-65
2023/06/19 00:30:11;;;;;;;6.70;4.43;;;21.30;99.90;;;;;;4995629;28;20265;-65
2023/06/19 00:32:46;;;;;;;4.38;3.97;;;21.30;99.90;;;;;;4992629;28;20499;-65
2023/06/19 00:35:13;;;;;;;6.80;4.35;;;21.30;99.90;;;;;;5008312;28;20693;-65
2023/06/19 00:37:44;;;;;;;4.97;4.50;;;21.30;99.90;;;;;;4976222;28;20541;-65
2023/06/19 00:40:17;;;;;;;4.82;4.40;;;21.20;99.90;;;;;;5011520;28;20211;-65
2023/06/19 00:42:44;;;;;;;6.57;4.50;;;21.20;99.90;;;;;;5008312;28;20843;-65
2023/06/19 00:45:11;;;;;;;9.35;4.65;;;21.20;99.90;;;;;;5008098;28;20666;-65
2023/06/19 00:47:38;;;;;;;5.32;4.60;;;21.20;99.90;;;;;;4986071;28;20206;-65
2023/06/19 00:50:07;;;;;;;4.85;4.40;;;21.20;99.90;;;;;;5011282;28;20202;-65
2023/06/19 00:52:33;;;;;;;5.35;4.30;;;21.20;99.90;;;;;;5004809;28;20237;-65
2023/06/19 00:55:02;;;;;;;4.53;4.10;;;21.20;99.90;;;;;;4962993;28;20213;-65
2023/06/19 00:57:31;;;;;;;6.20;4.28;;;21.20;99.90;;;;;;5007672;28;20202;-65
2023/06/19 00:59:58;;;;;;;5.30;4.60;;;21.30;99.90;;;;;;5007081;28;20207;-63
2023/06/19 01:02:25;;;;;;;4.63;4.22;;;20.00;99.90;;;;;;4983093;28;20209;-65
2023/06/19 01:04:52;;;;;;;5.93;4.10;;;21.20;99.90;;;;;;5007494;28;22128;-65
2023/06/19 01:07:27;;;;;;;4.50;4.10;;;21.20;99.90;;;;;;5010124;28;20229;-63
2023/06/19 01:09:58;;;;;;;4.80;4.40;;;21.20;99.90;;;;;;4972035;28;20209;-63
2023/06/19 01:12:31;;;;;;;7.50;4.70;;;21.10;99.90;;;;;;5004483;28;20209;-63
2023/06/19 01:15:00;;;;;;;4.80;4.30;;;21.10;99.90;;;;;;5008084;28;20339;-65
2023/06/19 01:17:28;;;;;;;6.65;4.65;;;21.10;99.90;;;;;;4990195;28;20698;-65
2023/06/19 01:19:55;;;;;;;5.75;4.75;;;21.10;99.90;;;;;;4998749;28;20224;-66
2023/06/19 01:22:30;;;;;;;16.65;5.38;;;21.10;99.90;;;;;;5007159;28;20202;-65
2023/06/19 01:24:57;;;;;;;5.15;4.65;;;21.10;99.90;;;;;;5000908;28;20205;-63
2023/06/19 01:27:25;;;;;;;5.40;4.90;;;21.10;99.90;;;;;;4971810;28;20220;-63
2023/06/19 01:29:53;;;;;;;6.05;5.28;;;21.00;99.90;;;;;;5006607;28;20226;-63
2023/06/19 01:32:25;;;;;;;5.53;5.03;;;21.10;99.90;;;;;;4988336;28;20202;-64
2023/06/19 01:34:55;;;;;;;5.43;4.93;;;21.10;99.90;;;;;;4998599;28;20214;-65
2023/06/19 01:37:25;;;;;;;5.43;4.93;;;22.50;99.90;;;;;;5006752;28;20202;-65
2023/06/19 01:39:55;;;;;;;5.68;5.13;;;21.10;99.90;;;;;;4995214;28;20236;-65
2023/06/19 01:42:22;;;;;;;5.35;4.85;;;21.10;99.90;;;;;;4970897;28;20218;-65
2023/06/19 01:44:49;;;;;;;8.15;4.85;;;21.10;99.90;;;;;;5003657;28;20195;-65
2023/06/19 01:47:19;;;;;;;5.82;5.10;;;21.10;99.90;;;;;;5002412;28;20222;-65
2023/06/19 01:49:46;;;;;;;6.00;5.40;;;21.00;99.90;;;;;;4990084;28;20802;-65
2023/06/19 01:52:13;;;;;;;8.30;4.85;;;21.00;99.90;;;;;;5009632;28;20214;-65
2023/06/19 01:54:40;;;;;;;6.30;5.18;;;21.00;99.90;;;;;;4994823;28;20749;-65
2023/06/19 01:57:09;;;;;;;5.22;4.72;;;21.00;99.90;;;;;;5007439;28;20209;-65
2023/06/19 01:59:36;;;;;;;6.03;5.40;;;21.00;99.90;;;;;;4976153;28;20446;-65
2023/06/19 02:02:03;;;;;;;5.57;5.07;;;21.00;99.90;;;;;;5007760;28;20260;-65
2023/06/19 02:04:30;;;;;;;8.38;5.03;;;20.70;99.90;;;;;;4981409;28;20199;-65
2023/06/19 02:06:57;;;;;;;6.45;5.15;;;21.00;99.90;;;;;;5008917;28;20234;-64
2023/06/19 02:09:24;;;;;;;5.95;5.32;;;21.00;99.90;;;;;;5007854;28;20206;-65
2023/06/19 02:11:51;;;;;;;7.53;5.60;;;21.00;99.90;;;;;;5000239;28;20198;-65
2023/06/19 02:14:19;;;;;;;5.63;5.00;;;21.00;99.90;;;;;;4973223;28;20222;-65
2023/06/19 02:16:45;;;;;;;5.35;4.72;;;20.90;99.90;;;;;;5008970;28;20838;-65
2023/06/19 02:19:12;;;;;;;5.80;5.20;;;21.00;99.90;;;;;;5011171;28;20194;-65
2023/06/19 02:21:39;;;;;;;5.53;5.03;;;21.00;99.90;;;;;;4999755;28;20213;-65
2023/06/19 02:24:06;;;;;;;6.35;5.22;;;21.00;99.90;;;;;;5009837;28;20198;-65
2023/06/19 02:26:34;;;;;;;10.40;4.97;;;22.30;99.90;;;;;;4998645;28;20198;-65
2023/06/19 02:29:01;;;;;;;6.68;4.72;;;21.00;99.90;;;;;;4977786;28;20210;-65
2023/06/19 02:31:29;;;;;;;6.30;5.32;;;21.00;99.90;;;;;;4996297;28;20205;-65
2023/06/19 02:33:56;;;;;;;5.35;4.72;;;21.00;99.90;;;;;;4996330;28;20233;-65
2023/06/19 02:36:22;;;;;;;6.03;5.43;;;20.90;99.90;;;;;;4985238;28;20209;-65
2023/06/19 02:38:50;;;;;;;7.13;5.43;;;20.90;99.90;;;;;;5005753;28;20225;-65
2023/06/19 02:41:18;;;;;;;5.30;4.80;;;20.90;99.90;;;;;;5004843;28;20202;-65
2023/06/19 02:43:45;;;;;;;6.13;4.95;;;21.00;99.90;;;;;;5004346;28;20746;-65
2023/06/19 02:46:12;;;;;;;6.03;5.43;;;21.00;99.90;;;;;;4974257;28;20222;-65
2023/06/19 02:48:40;;;;;;;5.28;4.78;;;21.00;99.90;;;;;;5010264;28;20204;-65
2023/06/19 02:51:07;;;;;;;5.78;5.10;;;21.00;99.90;;;;;;4978362;28;20240;-63
2023/06/19 02:53:34;;;;;;;6.78;5.30;;;21.00;99.90;;;;;;4990522;28;20374;-64
2023/06/19 02:56:01;;;;;;;5.35;4.80;;;21.00;99.90;;;;;;5007803;28;20198;-63
2023/06/19 02:58:27;;;;;;;5.53;5.00;;;21.00;99.90;;;;;;5008144;28;20194;-63
2023/06/19 03:00:54;;;;;;;5.10;4.60;;;21.00;99.90;;;;;;4971354;28;20214;-64
2023/06/19 03:03:22;;;;;;;8.05;4.93;;;21.00;99.90;;;;;;5000390;28;20216;-64
2023/06/19 03:05:50;;;;;;;5.22;4.72;;;20.80;99.90;;;;;;4995002;28;20199;-63
2023/06/19 03:08:17;;;;;;;6.20;4.95;;;21.10;99.90;;;;;;5002530;28;20229;-63
2023/06/19 03:10:44;;;;;;;7.35;4.85;;;21.10;99.90;;;;;;5009876;28;20199;-64
2023/06/19 03:13:11;;;;;;;5.22;4.72;;;21.10;99.90;;;;;;5009628;28;20228;-64
2023/06/19 03:15:38;;;;;;;4.90;4.50;;;21.10;99.90;;;;;;4978141;28;20790;-63
2023/06/19 03:18:07;;;;;;;5.80;5.20;;;21.10;99.90;;;;;;5008914;28;20684;-64
2023/06/19 03:20:34;;;;;;;9.50;4.95;;;21.10;99.90;;;;;;5007226;28;20957;-64
2023/06/19 03:23:02;;;;;;;5.47;4.88;;;21.10;99.90;;;;;;4996677;28;20198;-64
2023/06/19 03:25:34;;;;;;;6.88;5.15;;;21.10;99.90;;;;;;5008050;28;20761;-63
2023/06/19 03:28:01;;;;;;;7.05;4.63;;;21.10;99.90;;;;;;5005391;28;20206;-64
2023/06/19 03:30:28;;;;;;;5.22;4.72;;;21.10;99.90;;;;;;4974114;28;20220;-63
2023/06/19 03:32:55;;;;;;;5.93;4.97;;;21.10;99.90;;;;;;5002383;28;20197;-64
2023/06/19 03:35:21;;;;;;;5.70;5.20;;;21.10;99.90;;;;;;5011363;28;20237;-63
2023/06/19 03:37:48;;;;;;;5.20;4.70;;;21.10;99.90;;;;;;4984836;28;20212;-63
2023/06/19 03:40:17;;;;;;;7.55;4.65;;;22.40;99.90;;;;;;5010575;28;20202;-63
2023/06/19 03:42:43;;;;;;;9.23;4.78;;;21.10;99.90;;;;;;5000992;28;20209;-64
2023/06/19 03:45:11;;;;;;;8.25;4.90;;;21.10;99.90;;;;;;4990967;28;20221;-63
2023/06/19 03:47:37;;;;;;;5.07;4.57;;;21.00;99.90;;;;;;4971620;28;20206;-63
2023/06/19 03:50:09;;;;;;;5.60;4.95;;;21.00;99.90;;;;;;5002605;28;20202;-63
2023/06/19 03:52:36;;;;;;;5.07;4.60;;;21.00;99.90;;;;;;4999115;28;20336;-64
2023/06/19 03:55:03;;;;;;;5.68;5.05;;;21.00;99.90;;;;;;4987419;28;20473;-63
2023/06/19 03:57:31;;;;;;;5.18;4.60;;;21.00;99.90;;;;;;5002060;28;20220;-64
2023/06/19 03:59:58;;;;;;;5.25;4.75;;;21.10;99.90;;;;;;4988520;28;20221;-63
2023/06/19 04:02:25;;;;;;;5.75;5.22;;;20.90;99.90;;;;;;4946962;28;20214;-63
2023/06/19 04:04:52;;;;;;;6.20;5.15;;;20.90;99.90;;;;;;4985440;28;20703;-63
2023/06/19 04:07:19;;;;;;;6.07;5.25;;;20.80;99.90;;;;;;4986026;28;20235;-64
2023/06/19 04:09:46;;;;;;;6.40;4.88;;;20.80;99.90;;;;;;4992951;28;20202;-63
2023/06/19 04:12:12;;;;;;;6.68;4.90;;;20.70;99.90;;;;;;4991228;28;20317;-63
2023/06/19 04:14:40;;;;;;;5.63;5.05;;;20.70;99.90;;;;;;5010474;28;20230;-63
2023/06/19 04:17:07;;;;;;;6.15;5.55;;;20.60;99.90;;;;;;4975469;28;20229;-64
2023/06/19 04:19:34;;;;;;;7.40;5.35;;;20.50;99.90;;;;;;4988403;28;20202;-64
2023/06/19 04:22:01;;;;;;;6.72;5.53;;;18.50;99.90;;;;;;4993442;28;20879;-64
2023/06/19 04:24:28;;;;;;;5.72;5.13;;;20.40;99.90;;;;;;4998252;28;20233;-64
2023/06/19 04:26:54;;;;;;;10.98;5.78;;;20.40;99.90;;;;;;5006422;28;20306;-64
2023/06/19 04:29:22;;;;;;;6.50;5.30;;;20.40;99.90;;;;;;5007665;28;20282;-64
2023/06/19 04:31:50;;;;;;;6.22;5.28;;;20.40;99.90;;;;;;4997898;28;20217;-64
2023/06/19 04:34:20;;;;;;;8.35;5.25;;;20.30;99.90;;;;;;4971830;28;20241;-64
2023/06/19 04:36:47;;;;;;;6.82;5.35;;;20.40;99.90;;;;;;5003170;28;20945;-64
2023/06/19 04:39:14;;;;;;;13.23;5.70;;;20.40;99.90;;;;;;4994488;28;20219;-64
2023/06/19 04:41:43;;;;;;;6.72;4.63;;;20.30;99.90;;;;;;4995793;28;20222;-64
2023/06/19 04:44:11;;;;;;;4.80;4.30;;;20.40;99.90;;;;;;4995798;28;20218;-64
2023/06/19 04:46:38;;;;;;;7.43;4.43;;;20.60;99.90;;;;;;4990610;28;20225;-64
2023/06/19 04:49:06;;;;;;;6.95;5.22;;;20.90;99.90;;;;;;4963988;28;20241;-63
2023/06/19 04:51:36;;;;;;;7.28;5.35;;;20.90;99.90;;;;;;4999191;28;20978;-63
2023/06/19 04:54:03;;;;;;;5.35;4.82;;;20.80;99.90;;;;;;4992193;28;20242;-64
2023/06/19 04:56:30;;;;;;;7.15;5.75;;;20.70;99.90;;;;;;4997382;28;20667;-64
2023/06/19 04:58:59;;;;;;;6.30;5.28;;;20.60;99.90;;;;;;4997065;28;20225;-64
2023/06/19 05:01:28;;;;;;;8.65;5.80;;;20.60;99.90;;;;;;5003083;28;20771;-64
2023/06/19 05:03:56;;;;;;;9.07;5.55;;;20.50;99.90;;;;;;4965838;28;20324;-63
2023/06/19 05:06:25;;;;;;;5.53;5.00;;;20.50;99.90;;;;;;5000200;28;20307;-64
2023/06/19 05:08:52;;;;;;;5.60;4.97;;;20.50;99.90;;;;;;5001505;28;20818;-63
2023/06/19 05:11:19;;;;;;;6.43;5.18;;;20.40;99.90;;;;;;4994404;28;20230;-64
2023/06/19 05:13:46;;;;;;;6.35;5.75;;;20.40;99.90;;;;;;4998738;28;20230;-63
2023/06/19 05:16:16;;;;;;;5.90;5.32;;;20.40;99.90;;;;;;5004300;28;20218;-63
2023/06/19 05:18:43;;;;;;;6.13;5.32;;;20.40;99.90;;;;;;4988348;28;20317;-63
2023/06/19 05:21:10;;;;;;;6.95;5.65;;;20.40;99.90;;;;;;4983462;28;20210;-64
2023/06/19 05:23:39;;;;;;;6.20;5.47;;;20.40;99.90;;;;;;5009747;28;20233;-63
2023/06/19 05:26:09;;;;;;;6.25;5.43;;;20.40;99.90;;;;;;4988290;28;20232;-63
2023/06/19 05:28:35;;;;;;;5.63;4.95;;;20.50;99.90;;;;;;4992016;28;20210;-63
2023/06/19 05:31:04;;;;;;;5.82;4.75;;;20.50;99.90;;;;;;5007423;28;20208;-63
2023/06/19 05:33:31;;;;;;;5.57;4.97;;;20.50;99.90;;;;;;4989620;28;20225;-63
2023/06/19 05:35:58;;;;;;;8.60;4.90;;;20.50;99.90;;;;;;4975918;28;20931;-63
2023/06/19 05:38:25;;;;;;;5.82;5.20;;;20.50;99.90;;;;;;4998343;28;20364;-63
2023/06/19 05:40:53;;;;;;;9.48;5.63;;;20.50;99.90;;;;;;5007675;28;20206;-62
2023/06/19 05:43:21;;;;;;;6.00;4.88;;;;;;;;;;4990284;28;20575;-63
2023/06/19 05:45:48;;;;;;;8.35;5.43;;;20.70;99.90;;;;;;5010720;28;20591;-63
2023/06/19 05:48:15;;;;;;;7.00;5.60;;;20.70;99.90;;;;;;4997329;28;20217;-64
2023/06/19 05:50:42;;;;;;;11.75;5.32;;;20.60;99.90;;;;;;4958877;28;20222;-63
2023/06/19 05:53:09;;;;;;;5.82;5.13;;;20.70;99.90;;;;;;5005289;28;20698;-63
2023/06/19 05:55:35;;;;;;;7.18;5.13;;;20.70;99.90;;;;;;5011410;28;20233;-64
2023/06/19 05:58:04;;;;;;;6.65;4.78;;;20.80;99.90;;;;;;4977332;28;20218;-63
2023/06/19 06:00:32;;;;;;;6.07;4.85;;;20.80;99.90;;;;;;5011008;28;20221;-63
2023/06/19 06:02:59;;;;;;;6.53;5.07;;;20.90;99.90;;;;;;4996626;28;20198;-63
2023/06/19 06:05:26;;;;;;;7.30;5.18;;;20.90;99.90;;;;;;4973814;28;20229;-62
2023/06/19 06:07:53;;;;;;;7.05;5.38;;;21.00;99.90;;;;;;5000980;28;20229;-63
2023/06/19 06:10:20;;;;;;;7.68;5.47;;;21.00;99.90;;;;;;4988364;28;20322;-63
2023/06/19 06:12:48;;;;;;;6.95;5.28;;;21.00;99.90;;;;;;4994601;28;20737;-63
2023/06/19 06:15:17;;;;;;;5.75;5.20;;;21.00;99.90;;;;;;4989795;28;20230;-64
2023/06/19 06:17:44;;;;;;;9.10;5.38;;;21.10;99.90;;;;;;5010830;28;20209;-63
2023/06/19 06:20:12;;;;;;;6.50;5.70;;;21.10;99.90;;;;;;4995632;28;20424;-64
2023/06/19 06:22:39;;;;;;;8.02;5.85;;;21.20;99.90;;;;;;4980289;28;21986;-62
2023/06/19 06:25:07;;;;;;;6.85;4.63;;;21.20;99.90;;;;;;4997463;28;20210;-64
2023/06/19 06:27:36;;;;;;;7.88;5.60;;;22.50;99.90;;;;;;4995175;28;20294;-62
2023/06/19 06:30:04;;;;;;;6.80;5.30;;;21.50;99.90;;;;;;4997297;28;20202;-63
2023/06/19 06:32:32;;;;;;;6.78;5.20;;;21.50;99.90;;;;;;5005018;28;20218;-63
2023/06/19 06:34:59;;;;;;;7.95;4.93;;;21.60;99.90;;;;;;4995751;28;20225;-63
2023/06/19 06:37:26;;;;;;;6.50;5.43;;;21.70;99.90;;;;;;4979548;28;20229;-64
2023/06/19 06:39:53;;;;;;;7.43;4.88;;;21.70;99.90;;;;;;4997758;28;20568;-64
2023/06/19 06:42:20;;;;;;;6.80;5.25;;;21.70;99.90;;;;;;5004463;28;20201;-63
2023/06/19 06:44:47;;;;;;;10.25;5.53;;;21.80;99.90;;;;;;4989863;28;20621;-63
2023/06/19 06:47:14;;;;;;;8.20;5.80;;;21.90;99.90;;;;;;4989346;28;20365;-63
2023/06/19 06:49:42;;;;;;;7.65;5.35;;;21.90;99.90;;;;;;4999240;28;20732;-63
2023/06/19 06:52:09;;;;;;;7.95;5.30;;;21.90;99.90;;;;;;4974112;28;20218;-63
2023/06/19 06:54:36;;;;;;;7.97;5.05;;;21.90;99.90;;;;;;5005633;28;20948;-63
2023/06/19 06:57:05;;;;;;;10.75;5.57;;;21.90;99.90;;;;;;4992848;28;20220;-63
2023/06/19 06:59:31;;;;;;;7.15;5.28;;;22.00;99.90;;;;;;4997411;28;20589;-63
2023/06/19 07:01:58;;;;;;;8.27;5.05;;;22.00;99.90;;;;;;4984964;28;20403;-63
2023/06/19 07:04:25;;;;;;;8.45;5.45;;;22.00;99.90;;;;;;5005054;28;20214;-62
2023/06/19 07:06:53;;;;;;;7.25;5.03;;;20.90;99.90;;;;;;4959284;28;20241;-64
2023/06/19 07:09:21;;;;;;;6.93;4.93;;;22.10;99.90;;;;;;4996282;28;20206;-64
2023/06/19 07:11:47;;;;;;;7.38;5.65;;;22.10;99.90;;;;;;4986781;28;20206;-63
2023/06/19 07:14:17;;;;;;;5.88;5.10;;;22.10;99.90;;;;;;4998933;28;22980;-63
2023/06/19 07:16:44;;;;;;;8.43;4.70;;;22.10;99.90;;;;;;4980793;28;20209;-63
2023/06/19 07:19:11;;;;;;;10.60;4.80;;;22.20;99.90;;;;;;5004558;28;20194;-64
2023/06/19 07:21:38;;;;;;;12.77;5.28;;;22.20;99.90;;;;;;4988853;28;22652;-63
2023/06/19 07:24:07;;;;;;;5.80;5.10;;;22.20;99.90;;;;;;4974672;28;20714;-63
2023/06/19 07:26:33;;;;;;;8.68;5.20;;;22.20;99.90;;;;;;4984871;28;20356;-63
2023/06/19 07:29:00;;;;;;;9.45;5.18;;;22.30;99.90;;;;;;5008350;28;20212;-63
2023/06/19 07:31:27;;;;;;;8.18;5.35;;;22.40;99.90;;;;;;4984460;28;20213;-64
2023/06/19 07:33:54;;;;;;;6.63;5.25;;;22.50;99.90;;;;;;5004479;28;20248;-64
2023/06/19 07:36:20;;;;;;;8.85;4.85;;;22.50;99.90;;;;;;4990642;28;20265;-63
2023/06/19 07:38:47;;;;;;;6.50;5.10;;;22.60;99.90;;;;;;4981440;28;20232;-63
2023/06/19 07:41:15;;;;;;;5.45;4.60;;;22.60;99.90;;;;;;4999123;28;20658;-63
2023/06/19 07:43:42;;;;;;;9.02;5.60;;;22.70;99.90;;;;;;5002019;28;20217;-63
2023/06/19 07:46:11;;;;;;;7.22;4.75;;;22.70;99.90;;;;;;4997207;28;20222;-64
2023/06/19 07:48:37;;;;;;;8.15;4.80;;;22.80;99.90;;;;;;4994852;28;20206;-63
2023/06/19 07:51:04;;;;;;;5.95;5.18;;;22.80;99.90;;;;;;5001898;28;20596;-63
2023/06/19 07:53:31;;;;;;;5.75;4.95;;;22.80;99.90;;;;;;5003694;28;20201;-64
2023/06/19 07:55:58;;;;;;;8.70;4.43;;;22.90;99.90;;;;;;4981069;28;20241;-64
2023/06/19 07:58:26;;;;;;;4.80;4.10;;;23.60;99.90;;;;;;4998145;28;20222;-63
2023/06/19 08:00:52;;;;;;;5.28;3.95;;;22.90;99.90;;;;;;5001110;28;20213;-63
2023/06/19 08:03:19;;;;;;;7.80;4.72;;;23.00;99.90;;;;;;4986484;28;20217;-64
2023/06/19 08:05:46;;;;;;;6.55;4.38;;;23.00;99.90;;;;;;5005938;28;20211;-64
2023/06/19 08:08:13;;;;;;;6.30;4.25;;;23.10;99.90;;;;;;4995780;28;20234;-64
2023/06/19 08:10:41;;;;;;;6.30;4.35;;;23.00;99.90;;;;;;4964961;28;20229;-64
2023/06/19 08:13:08;;;;;;;8.85;4.68;;;23.10;99.90;;;;;;4992532;28;20226;-63
2023/06/19 08:15:36;;;;;;;4.88;4.32;;;23.30;99.90;;;;;;5000066;28;20233;-63
2023/06/19 08:18:03;;;;;;;6.78;4.80;;;23.30;99.90;;;;;;4985723;28;20218;-64
2023/06/19 08:20:30;;;;;;;10.13;5.32;;;23.70;99.90;;;;;;5008585;28;20211;-64
2023/06/19 08:22:57;;;;;;;8.35;5.60;;;23.60;99.90;;;;;;4980306;28;20726;-62
2023/06/19 08:25:23;;;;;;;7.30;4.70;;;23.60;99.90;;;;;;4995212;28;20233;-63
2023/06/19 08:27:50;;;;;;;7.32;5.00;;;23.60;99.90;;;;;;4967684;28;20206;-63
2023/06/19 08:30:17;;;;;;;9.88;5.40;;;23.70;99.90;;;;;;5005365;28;20220;-63
2023/06/19 08:32:48;;;;;;;5.47;4.63;;;23.70;99.90;;;;;;4988936;28;20209;-64
2023/06/19 08:35:15;;;;;;;6.57;5.32;;;23.70;99.90;;;;;;5003086;28;20941;-63
2023/06/19 08:37:41;;;;;;;7.40;5.55;;;23.70;99.90;;;;;;5002829;28;20257;-63
2023/06/19 08:40:10;;;;;;;8.88;4.93;;;23.80;99.90;;;;;;4983539;28;21047;-63
2023/06/19 08:42:37;;;;;;;5.32;4.63;;;23.80;99.90;;;;;;4970119;28;20352;-64
2023/06/19 08:45:04;;;;;;;6.63;5.20;;;23.80;99.90;;;;;;4982674;28;20252;-64
2023/06/19 08:47:32;;;;;;;6.85;4.75;;;23.80;99.90;;;;;;4987299;28;20319;-64
2023/06/19 08:50:00;;;;;;;14.27;5.53;;;23.80;99.90;;;;;;4991670;28;20217;-63
2023/06/19 08:52:27;;;;;;;9.73;4.32;;;23.90;99.90;;;;;;4992254;28;20234;-63
2023/06/19 08:54:54;;;;;;;7.93;4.55;;;23.90;99.90;;;;;;4994535;28;20209;-63
2023/06/19 08:57:21;;;;;;;6.38;4.50;;;24.00;99.90;;;;;;4972731;28;20221;-63
2023/06/19 08:59:51;;;;;;;11.02;4.32;;;24.00;99.90;;;;;;4997967;28;20202;-64
2023/06/19 09:02:18;;;;;;;7.50;4.45;;;24.00;99.90;;;;;;4996731;28;20210;-63
2023/06/19 09:04:45;;;;;;;7.50;4.78;;;24.00;99.90;;;;;;4990337;28;20240;-63
2023/06/19 09:07:15;;;;;;;6.00;4.18;;;24.10;99.90;;;;;;5004850;28;20244;-63
2023/06/19 09:09:46;;;;;;;5.55;4.55;;;24.20;99.90;;;;;;4990654;28;20226;-63
2023/06/19 09:12:17;;;;;;;7.07;5.28;;;24.20;99.90;;;;;;4965003;28;20229;-64
2023/06/19 09:14:45;;;;;;;5.90;4.75;;;24.30;99.90;;;;;;4983310;28;20211;-63
2023/06/19 09:17:13;;;;;;;7.85;4.35;;;24.50;99.90;;;;;;4989491;28;20232;-64
2023/06/19 09:19:48;;;;;;;5.10;4.40;;;24.50;99.90;;;;;;4996487;28;20206;-63
2023/06/19 09:22:19;;;;;;;4.88;4.28;;;24.60;99.90;;;;;;5005881;28;20219;-64
2023/06/19 09:24:46;;;;;;;5.22;3.97;;;24.50;99.90;;;;;;5006066;28;20218;-63
2023/06/19 09:27:14;;;;;;;12.65;4.25;;;24.70;99.90;;;;;;4999676;28;20233;-64
2023/06/19 09:29:42;;;;;;;4.43;3.85;;;24.80;99.90;;;;;;4971655;28;20221;-64
2023/06/19 09:32:19;;;;;;;5.28;3.58;;;24.90;99.90;;;;;;5001992;28;20906;-64
2023/06/19 09:34:45;;;;;;;4.47;3.72;;;25.00;99.90;;;;;;4990257;28;20222;-65
2023/06/19 09:37:12;;;;;;;9.60;3.85;;;25.00;99.90;;;;;;5005848;28;20218;-64
2023/06/19 09:39:41;;;;;;;5.75;3.90;;;24.80;99.90;;;;;;5010733;28;20217;-64
2023/06/19 09:42:10;;;;;;;4.57;3.25;;;24.80;99.90;;;;;;4998103;28;20205;-64
2023/06/19 09:44:41;;;;;;;5.22;3.80;;;24.40;99.90;;;;;;4973845;28;20214;-64
2023/06/19 09:47:18;;;;;;;8.48;4.43;;;24.50;99.90;;;;;;5013030;28;20922;-64
2023/06/19 09:49:51;;;;;;;4.13;3.50;;;24.40;99.90;;;;;;4997279;28;20212;-64
2023/06/19 09:52:19;;;;;;;9.85;4.00;;;24.40;99.90;;;;;;4995609;28;20210;-64
2023/06/19 09:54:47;;;;;;;5.75;3.80;;;24.60;99.90;;;;;;5006550;28;20249;-64
2023/06/19 09:57:14;;;;;;;7.60;3.95;;;23.90;99.90;;;;;;4996917;28;20221;-64
2023/06/19 09:59:43;;;;;;;10.82;3.70;;;24.60;99.90;;;;;;4984023;28;20201;-65
2023/06/19 10:02:11;;;;;;;4.32;3.38;;;25.10;99.90;;;;;;5007626;28;20214;-64
2023/06/19 10:04:46;;;;;;;6.32;3.70;;;24.60;99.90;;;;;;4996185;28;20225;-64
2023/06/19 10:07:20;;;;;;;4.22;3.72;;;24.60;99.90;;;;;;4999276;28;20247;-64
2023/06/19 10:10:04;;;;;;;6.07;3.35;;;24.60;99.90;;;;;;5010855;28;20221;-64
2023/06/19 10:12:39;;;;;;;4.53;3.10;;;24.50;99.90;;;;;;5000799;28;20205;-64
2023/06/19 10:15:14;;;;;;;3.65;3.17;;;24.50;99.90;;;;;;5010078;28;20205;-64
2023/06/19 10:17:45;;;;;;;4.68;2.70;;;24.50;99.90;;;;;;4976943;28;20221;-64
2023/06/19 10:20:23;;;;;;;8.05;2.55;;;24.50;99.90;;;;;;5003538;28;20198;-64
2023/06/19 10:22:57;;;;;;;6.40;2.63;;;24.70;99.90;;;;;;4993625;28;20221;-64
2023/06/19 10:25:28;;;;;;;5.45;2.70;;;24.40;99.90;;;;;;5013410;28;20197;-64
2023/06/19 10:27:54;;;;;;;2.88;2.67;;;24.50;99.90;;;;;;5006793;28;20202;-64
2023/06/19 10:30:22;;;;;;;3.05;2.75;;;24.40;99.90;;;;;;5012862;28;20329;-64
2023/06/19 10:32:49;;;;;;;4.25;3.15;;;24.70;99.90;;;;;;4976526;28;20312;-65
2023/06/19 10:35:21;;;;;;;8.85;2.78;;;24.70;99.90;;;;;;5002342;28;20206;-64
2023/06/19 10:37:48;;;;;;;3.83;3.08;;;24.90;99.90;;;;;;5006750;28;20698;-64
2023/06/19 10:40:15;;;;;;;7.30;3.00;;;24.40;99.90;;;;;;4999784;28;20239;-64
2023/06/19 10:42:44;;;;;;;3.40;2.88;;;24.40;99.90;;;;;;4975077;28;20214;-64
2023/06/19 10:45:13;;;;;;;5.15;2.75;;;24.20;99.90;;;;;;4997704;28;20228;-63
2023/06/19 10:47:41;;;;;;;3.90;2.90;;;24.30;99.90;;;;;;4957910;28;20226;-64
2023/06/19 10:50:12;;;;;;;5.13;2.90;;;24.30;99.90;;;;;;4988764;28;20261;-64
2023/06/19 10:52:42;;;;;;;3.67;2.60;;;24.50;99.90;;;;;;5001578;28;20202;-64
2023/06/19 10:55:09;;;;;;;7.13;2.63;;;24.50;99.90;;;;;;4991207;28;20866;-64
2023/06/19 10:57:36;;;;;;;3.05;2.75;;;24.30;99.90;;;;;;5005914;28;20592;-64
2023/06/19 11:00:11;;;;;;;7.03;3.05;;;24.20;99.90;;;;;;4998712;28;20222;-64
2023/06/19 11:02:39;;;;;;;3.47;3.17;;;24.40;99.90;;;;;;4968158;28;20232;-64
2023/06/19 11:05:07;;;;;;;3.35;2.70;;;24.30;99.90;;;;;;4987570;28;20968;-64
2023/06/19 11:07:34;;;;;;;5.07;2.88;;;24.40;99.90;;;;;;4988533;28;21091;-65
2023/06/19 11:10:00;;;;;;;4.05;3.08;;;24.30;99.90;;;;;;4980395;28;23470;-64
2023/06/19 11:12:27;;;;;;;3.95;2.60;;;24.20;99.90;;;;;;5005314;28;20237;-64
2023/06/19 11:14:54;;;;;;;6.40;2.88;;;24.20;99.90;;;;;;5007455;28;20205;-64
2023/06/19 11:17:23;;;;;;;7.82;3.08;;;24.10;99.90;;;;;;4983898;28;20222;-64
2023/06/19 11:19:51;;;;;;;5.63;2.85;;;24.20;99.90;;;;;;4938706;28;20257;-64
2023/06/19 11:22:17;;;;;;;6.53;3.00;;;24.10;99.90;;;;;;4984135;28;20229;-64
2023/06/19 11:24:45;;;;;;;3.30;2.75;;;24.10;99.90;;;;;;5007026;28;20947;-64
2023/06/19 11:27:24;;;;;;;2.92;2.60;;;24.10;99.90;;;;;;4991053;28;20711;-64
2023/06/19 11:29:56;;;;;;;3.28;2.85;;;24.10;99.90;;;;;;4996105;28;20999;-64
2023/06/19 11:32:25;;;;;;;4.97;3.08;;;24.20;99.90;;;;;;5008372;28;20194;-64
2023/06/19 11:34:54;;;;;;;10.65;3.30;;;24.10;99.90;;;;;;4969926;28;20210;-64
2023/06/19 11:37:22;;;;;;;3.67;3.38;;;24.10;99.90;;;;;;4984923;28;20234;-64
2023/06/19 11:39:52;;;;;;;5.07;2.50;;;23.80;99.90;;;;;;5010028;28;20766;-64
2023/06/19 11:42:19;;;;;;;3.35;2.78;;;23.50;99.90;;;;;;4993792;28;20213;-64
2023/06/19 11:44:55;;;;;;;2.75;2.53;;;23.60;99.90;;;;;;5010332;28;20197;-64
2023/06/19 11:47:23;;;;;;;5.88;3.38;;;23.60;99.90;;;;;;5015051;28;20202;-64
2023/06/19 11:49:51;;;;;;;3.20;2.80;;;23.60;99.90;;;;;;5000092;28;20198;-64
2023/06/19 11:52:18;;;;;;;7.32;3.50;;;23.60;99.90;;;;;;5000828;28;20210;-64
2023/06/19 11:54:45;;;;;;;6.88;2.95;;;23.50;99.90;;;;;;5002898;28;20205;-65
2023/06/19 11:57:13;;;;;;;4.75;2.90;;;23.40;99.90;;;;;;5001747;28;20233;-64
2023/06/19 11:59:40;;;;;;;4.05;2.80;;;23.40;99.90;;;;;;5016051;28;20205;-64
2023/06/19 12:02:07;;;;;;;3.30;2.92;;;23.40;99.90;;;;;;4995253;28;20202;-64
2023/06/19 12:04:35;;;;;;;3.20;2.90;;;23.30;99.90;;;;;;5015651;28;20217;-64
2023/06/19 12:07:03;;;;;;;5.25;2.90;;;23.20;99.90;;;;;;4981817;28;20607;-65
2023/06/19 12:09:31;;;;;;;3.53;3.22;;;23.20;99.90;;;;;;5006332;28;20260;-64
2023/06/19 12:11:58;;;;;;;2.70;2.50;;;23.30;99.90;;;;;;5011213;28;20743;-64
2023/06/19 12:14:26;;;;;;;4.97;2.60;;;23.20;99.90;;;;;;5003491;28;20206;-64
2023/06/19 12:16:53;;;;;;;3.22;2.90;;;22.80;99.90;;;;;;5007127;28;20332;-64
2023/06/19 12:19:20;;;;;;;4.88;2.90;;;23.20;99.90;;;;;;5012647;28;20198;-65
2023/06/19 12:21:48;;;;;;;3.08;2.78;;;23.00;99.90;;;;;;5006088;28;20202;-64
2023/06/19 12:24:15;;;;;;;3.50;3.20;;;23.10;99.90;;;;;;4981952;28;20230;-64
2023/06/19 12:26:42;;;;;;;3.22;2.92;;;23.10;99.90;;;;;;5015057;28;20218;-64
2023/06/19 12:29:09;;;;;;;3.10;2.80;;;23.10;99.90;;;;;;4981846;28;20210;-64
2023/06/19 12:31:36;;;;;;;2.97;2.67;;;23.10;99.90;;;;;;4997170;28;20705;-64
2023/06/19 12:34:03;;;;;;;3.50;3.20;;;23.20;99.90;;;;;;5006242;28;20194;-65
2023/06/19 12:36:31;;;;;;;5.43;3.22;;;23.30;99.90;;;;;;4974840;28;20670;-64
2023/06/19 12:39:00;;;;;;;3.95;3.25;;;23.30;99.90;;;;;;4958024;28;20662;-65
2023/06/19 12:41:27;;;;;;;3.78;3.38;;;23.20;99.90;;;;;;4987325;28;20238;-64
2023/06/19 12:43:53;;;;;;;3.90;3.00;;;23.30;99.90;;;;;;4969791;28;20225;-64
2023/06/19 12:46:21;;;;;;;3.65;3.35;;;23.30;99.90;;;;;;5001107;28;20225;-65
2023/06/19 12:48:50;;;;;;;4.95;3.53;;;23.30;99.90;;;;;;4993493;28;20214;-64
2023/06/19 12:51:17;;;;;;;5.18;4.05;;;23.40;99.90;;;;;;4995831;28;20217;-64